createdAt,value
2018-11-28T00:00:40.116Z,19.63
2018-11-28T00:03:10.706Z,20.95
2018-11-28T00:05:41.458Z,21.30
2018-11-28T00:08:27.071Z,21.62
2018-11-28T00:10:57.983Z,19.20
2018-11-28T00:13:28.602Z,20.65
2018-11-28T00:15:59.558Z,20.68
2018-11-28T00:18:30.410Z,21.27
2018-11-28T00:21:01.317Z,22.10
2018-11-28T00:23:32.257Z,21.57
2018-11-28T00:26:02.907Z,20.30
2018-11-28T00:28:33.715Z,20.53
2018-11-28T00:31:04.634Z,21.45
2018-11-28T00:33:35.289Z,20.10
2018-11-28T00:36:06.454Z,20.52
2018-11-28T00:38:37.365Z,22.20
2018-11-28T00:41:08.381Z,21.57
2018-11-28T00:43:39.341Z,22.10
2018-11-28T00:46:10.205Z,20.05
2018-11-28T00:48:41.198Z,20.43
2018-11-28T00:51:12.108Z,21.00
2018-11-28T00:53:42.985Z,20.77
2018-11-28T00:56:13.951Z,20.62
2018-11-28T00:58:44.858Z,19.87
2018-11-28T01:01:15.822Z,20.30
2018-11-28T01:03:46.672Z,20.60
2018-11-28T01:06:17.613Z,19.37
2018-11-28T01:08:48.493Z,19.65
2018-11-28T01:11:19.975Z,20.60
2018-11-28T01:13:50.898Z,20.85
2018-11-28T01:16:21.553Z,19.92
2018-11-28T01:18:52.502Z,20.55
2018-11-28T01:21:23.474Z,19.95
2018-11-28T01:23:54.374Z,22.35
2018-11-28T01:26:25.218Z,23.32
2018-11-28T01:28:56.062Z,21.73
2018-11-28T01:31:26.972Z,19.15
2018-11-28T01:33:57.847Z,19.48
2018-11-28T01:36:28.706Z,19.77
2018-11-28T01:38:59.598Z,20.43
2018-11-28T01:41:30.512Z,20.70
2018-11-28T01:44:01.549Z,19.85
2018-11-28T01:46:33.216Z,21.17
2018-11-28T01:49:04.166Z,20.37
2018-11-28T01:51:35.146Z,20.70
2018-11-28T01:54:06.338Z,19.43
2018-11-28T01:56:44.098Z,21.02
2018-11-28T01:59:15.629Z,20.85
2018-11-28T02:01:46.938Z,20.25
2018-11-28T02:04:17.842Z,18.15
2018-11-28T02:06:48.803Z,18.02
2018-11-28T02:09:19.746Z,19.25
2018-11-28T02:11:50.986Z,21.07
2018-11-28T02:14:21.918Z,19.60
2018-11-28T02:16:53.174Z,19.85
2018-11-28T02:19:24.090Z,19.37
2018-11-28T02:21:55.056Z,20.40
2018-11-28T02:24:26.081Z,20.52
2018-11-28T02:26:57.451Z,19.02
2018-11-28T02:29:28.310Z,19.23
2018-11-28T02:31:59.219Z,19.23
2018-11-28T02:34:30.343Z,19.17
2018-11-28T02:37:01.702Z,18.90
2018-11-28T02:39:32.335Z,19.65
2018-11-28T02:42:03.931Z,18.40
2018-11-28T02:44:35.242Z,20.27
2018-11-28T02:47:06.458Z,21.33
2018-11-28T02:49:37.481Z,19.27
2018-11-28T02:52:08.334Z,21.00
2018-11-28T02:54:39.178Z,19.15
2018-11-28T02:57:10.117Z,19.52
2018-11-28T02:59:41.706Z,19.98
2018-11-28T03:02:13.337Z,18.73
2018-11-28T03:04:44.300Z,21.35
2018-11-28T03:07:15.622Z,20.45
2018-11-28T03:09:46.630Z,19.30
2018-11-28T03:12:17.524Z,21.23
2018-11-28T03:14:48.471Z,20.32
2018-11-28T03:17:25.381Z,20.40
2018-11-28T03:19:56.662Z,20.17
2018-11-28T03:22:27.508Z,19.50
2018-11-28T03:24:58.433Z,18.15
2018-11-28T03:27:29.340Z,19.77
2018-11-28T03:30:00.403Z,19.00
2018-11-28T03:32:31.239Z,20.62
2018-11-28T03:35:02.115Z,20.27
2018-11-28T03:37:33.150Z,20.25
2018-11-28T03:40:04.086Z,18.67
2018-11-28T03:42:35.017Z,19.82
2018-11-28T03:45:09.250Z,19.52
2018-11-28T03:47:40.594Z,19.00
2018-11-28T03:50:13.468Z,17.40
2018-11-28T03:52:44.859Z,18.32
2018-11-28T03:55:16.717Z,19.12
2018-11-28T03:57:48.563Z,18.37
2018-11-28T04:00:20.968Z,18.00
2018-11-28T04:02:52.025Z,19.52
2018-11-28T04:05:22.975Z,19.32
2018-11-28T04:07:54.902Z,20.30
2018-11-28T04:10:25.847Z,18.40
2018-11-28T04:12:56.889Z,19.45
2018-11-28T04:15:27.846Z,21.00
2018-11-28T04:17:58.658Z,19.87
2018-11-28T04:20:29.630Z,19.60
2018-11-28T04:23:00.517Z,20.48
2018-11-28T04:25:31.509Z,22.62
2018-11-28T04:28:02.533Z,19.42
2018-11-28T04:30:34.161Z,21.07
2018-11-28T04:33:05.430Z,18.77
2018-11-28T04:35:36.353Z,20.43
2018-11-28T04:38:07.614Z,19.05
2018-11-28T04:40:38.534Z,18.80
2018-11-28T04:43:09.894Z,23.62
2018-11-28T04:45:40.826Z,22.90
2018-11-28T04:48:11.786Z,21.37
2018-11-28T04:50:43.306Z,22.22
2018-11-28T04:53:14.159Z,23.42
2018-11-28T04:55:45.082Z,21.62
2018-11-28T04:58:15.934Z,21.42
2018-11-28T05:00:46.849Z,20.82
2018-11-28T05:03:17.716Z,21.15
2018-11-28T05:05:48.646Z,21.30
2018-11-28T05:08:19.612Z,20.35
2018-11-28T05:10:50.526Z,20.08
2018-11-28T05:13:21.450Z,21.42
2018-11-28T05:15:52.499Z,19.67
2018-11-28T05:18:23.431Z,21.30
2018-11-28T05:20:54.379Z,21.87
2018-11-28T05:23:25.319Z,24.40
2018-11-28T05:25:56.797Z,24.72
2018-11-28T05:28:28.026Z,23.87
2018-11-28T05:30:59.810Z,21.33
2018-11-28T05:33:30.721Z,20.90
2018-11-28T05:36:01.666Z,24.32
2018-11-28T05:38:32.534Z,24.55
2018-11-28T05:41:03.181Z,21.62
2018-11-28T05:43:34.671Z,20.12
2018-11-28T05:46:06.087Z,20.95
2018-11-28T05:48:37.053Z,19.65
2018-11-28T05:51:08.657Z,18.75
2018-11-28T05:53:39.791Z,18.02
2018-11-28T05:56:10.798Z,14.75
2018-11-28T05:58:41.658Z,16.40
2018-11-28T06:01:12.361Z,16.67
2018-11-28T06:03:43.331Z,18.67
2018-11-28T06:06:14.821Z,19.10
2018-11-28T06:08:45.885Z,17.92
2018-11-28T06:11:16.917Z,19.50
2018-11-28T06:13:47.969Z,17.87
2018-11-28T06:16:18.881Z,20.97
2018-11-28T06:18:49.785Z,21.23
2018-11-28T06:21:20.774Z,19.57
2018-11-28T06:23:51.774Z,21.95
2018-11-28T06:26:22.859Z,22.15
2018-11-28T06:28:53.802Z,20.80
2018-11-28T06:31:25.784Z,19.30
2018-11-28T06:33:56.630Z,21.73
2018-11-28T06:36:27.557Z,19.50
2018-11-28T06:38:58.462Z,20.48
2018-11-28T06:41:31.458Z,20.60
2018-11-28T06:44:02.372Z,20.35
2018-11-28T06:46:33.762Z,16.82
2018-11-28T06:49:04.755Z,16.77
2018-11-28T06:51:35.630Z,17.70
2018-11-28T06:54:06.828Z,18.55
2018-11-28T06:56:37.715Z,20.05
2018-11-28T06:59:08.613Z,18.27
2018-11-28T07:01:39.562Z,16.00
2018-11-28T07:04:10.498Z,17.40
2018-11-28T07:06:41.447Z,18.10
2018-11-28T07:09:12.366Z,17.45
2018-11-28T07:11:43.325Z,15.72
2018-11-28T07:14:14.272Z,17.07
2018-11-28T07:16:45.186Z,17.90
2018-11-28T07:19:16.183Z,16.12
2018-11-28T07:21:47.296Z,17.70
2018-11-28T07:24:18.229Z,19.57
2018-11-28T07:26:49.134Z,19.48
2018-11-28T07:29:20.030Z,20.45
2018-11-28T07:31:51.070Z,17.80
2018-11-28T07:34:22.370Z,20.85
2018-11-28T07:36:53.317Z,20.20
2018-11-28T07:39:24.158Z,19.00
2018-11-28T07:41:55.088Z,19.85
2018-11-28T07:44:26.455Z,21.82
2018-11-28T07:46:57.293Z,20.25
2018-11-28T07:49:29.041Z,21.48
2018-11-28T07:51:59.993Z,21.30
2018-11-28T07:54:31.012Z,20.30
2018-11-28T07:57:01.992Z,21.23
2018-11-28T07:59:33.099Z,20.60
2018-11-28T08:02:04.191Z,18.70
2018-11-28T08:04:35.125Z,21.15
2018-11-28T08:07:06.782Z,19.60
2018-11-28T08:09:37.902Z,21.95
2018-11-28T08:12:09.760Z,19.20
2018-11-28T08:14:40.619Z,19.20
2018-11-28T08:17:11.599Z,19.23
2018-11-28T08:19:42.526Z,19.25
2018-11-28T08:22:13.469Z,17.35
2018-11-28T08:24:44.298Z,18.73
2018-11-28T08:27:15.199Z,18.92
2018-11-28T08:29:46.126Z,19.27
2018-11-28T08:32:17.010Z,18.50
2018-11-28T08:34:47.967Z,19.32
2018-11-28T08:37:18.962Z,18.07
2018-11-28T08:39:49.810Z,18.95
2018-11-28T08:42:20.766Z,20.08
2018-11-28T08:44:51.793Z,19.17
2018-11-28T08:47:22.734Z,19.17
2018-11-28T08:49:53.667Z,19.25
2018-11-28T08:52:25.638Z,19.98
2018-11-28T08:54:56.494Z,17.20
2018-11-28T08:57:27.424Z,18.65
2018-11-28T08:59:58.395Z,19.00
2018-11-28T09:02:29.310Z,17.77
2018-11-28T09:05:00.234Z,18.95
2018-11-28T09:07:31.185Z,18.42
2018-11-28T09:10:02.158Z,18.48
2018-11-28T09:12:32.966Z,18.20
2018-11-28T09:15:03.767Z,18.93
2018-11-28T09:17:34.935Z,17.77
2018-11-28T09:20:10.198Z,32.88
2018-11-28T09:22:41.055Z,27.33
2018-11-28T09:25:15.598Z,18.77
2018-11-28T09:27:53.312Z,16.90
2018-11-28T09:30:24.646Z,18.50
2018-11-28T09:32:55.405Z,19.83
2018-11-28T09:35:27.126Z,17.07
2018-11-28T09:37:58.090Z,16.37
2018-11-28T09:40:29.315Z,17.77
2018-11-28T09:43:01.737Z,16.30
2018-11-28T09:45:32.613Z,17.20
2018-11-28T09:48:03.295Z,16.70
2018-11-28T09:50:33.897Z,16.73
2018-11-28T09:53:05.483Z,17.37
2018-11-28T09:55:36.078Z,16.73
2018-11-28T09:58:07.774Z,16.65
2018-11-28T10:00:39.503Z,16.20
2018-11-28T10:03:10.454Z,17.25
2018-11-28T10:05:41.065Z,16.30
2018-11-28T10:08:12.223Z,16.30
2018-11-28T10:10:42.865Z,16.07
2018-11-28T10:13:13.485Z,15.37
2018-11-28T10:15:44.677Z,15.75
2018-11-28T10:18:15.662Z,14.75
2018-11-28T10:20:46.942Z,15.13
2018-11-28T10:23:17.531Z,15.73
2018-11-28T10:25:48.487Z,18.15
2018-11-28T10:28:19.402Z,16.65
2018-11-28T10:30:50.455Z,16.37
2018-11-28T10:33:21.465Z,15.75
2018-11-28T10:35:52.201Z,16.50
2018-11-28T10:38:23.071Z,16.70
2018-11-28T10:40:54.203Z,16.07
2018-11-28T10:43:25.346Z,17.27
2018-11-28T10:45:56.202Z,16.57
2018-11-28T10:48:27.327Z,16.73
2018-11-28T10:50:57.959Z,17.30
2018-11-28T10:53:28.464Z,17.10
2018-11-28T10:56:00.330Z,16.37
2018-11-28T10:58:31.042Z,16.73
2018-11-28T11:01:07.088Z,16.27
2018-11-28T11:03:43.109Z,16.87
2018-11-28T11:06:19.360Z,18.03
2018-11-28T11:08:55.230Z,16.90
2018-11-28T11:11:26.690Z,17.07
2018-11-28T11:14:02.681Z,16.00
2018-11-28T11:16:34.066Z,17.03
2018-11-28T11:19:05.084Z,17.50
2018-11-28T11:21:35.823Z,17.57
2018-11-28T11:24:07.292Z,15.17
2018-11-28T11:26:38.209Z,15.90
2018-11-28T11:29:09.291Z,15.80
2018-11-28T11:31:40.378Z,16.37
2018-11-28T11:34:11.382Z,16.07
2018-11-28T11:36:42.062Z,16.07
2018-11-28T11:39:13.126Z,15.60
2018-11-28T11:41:44.020Z,15.10
2018-11-28T11:44:14.702Z,16.10
2018-11-28T11:46:45.511Z,16.47
2018-11-28T11:49:16.271Z,16.10
2018-11-28T11:51:47.318Z,15.70
2018-11-28T11:54:17.960Z,16.23
2018-11-28T11:56:48.879Z,14.98
2018-11-28T11:59:19.762Z,14.40
2018-11-28T12:01:54.742Z,14.90
2018-11-28T12:04:21.160Z,12.93
2018-11-28T12:06:52.013Z,14.25
2018-11-28T12:09:24.282Z,14.00
2018-11-28T12:11:55.027Z,13.57
2018-11-28T12:14:25.904Z,14.38
2018-11-28T12:16:57.144Z,13.62
2018-11-28T12:19:28.030Z,14.40
2018-11-28T12:21:58.999Z,14.45
2018-11-28T12:24:29.917Z,14.07
2018-11-28T12:27:00.665Z,14.20
2018-11-28T12:29:31.390Z,12.83
2018-11-28T12:32:02.016Z,13.13
2018-11-28T12:34:33.419Z,13.43
2018-11-28T12:37:03.749Z,13.70
2018-11-28T12:39:34.392Z,12.60
2018-11-28T12:42:05.038Z,13.83
2018-11-28T12:44:35.621Z,12.57
2018-11-28T12:47:06.925Z,12.87
2018-11-28T12:49:37.539Z,12.60
2018-11-28T12:52:08.770Z,12.70
2018-11-28T12:54:39.719Z,12.60
2018-11-28T12:57:10.446Z,12.77
2018-11-28T12:59:41.039Z,14.20
2018-11-28T13:02:11.910Z,13.55
2018-11-28T13:04:42.925Z,12.53
2018-11-28T13:07:13.581Z,12.57
2018-11-28T13:09:44.722Z,14.40
2018-11-28T13:12:16.406Z,13.10
2018-11-28T13:14:47.850Z,12.60
2018-11-28T13:17:18.503Z,13.10
2018-11-28T13:19:49.096Z,12.33
2018-11-28T13:22:19.789Z,12.80
2018-11-28T13:24:50.461Z,11.67
2018-11-28T13:27:22.541Z,12.03
2018-11-28T13:29:53.100Z,12.37
2018-11-28T13:32:23.718Z,12.17
2018-11-28T13:34:54.406Z,12.17
2018-11-28T13:37:25.353Z,11.77
2018-11-28T13:39:56.194Z,12.73
2018-11-28T13:42:26.818Z,12.30
2018-11-28T13:44:57.585Z,11.67
2018-11-28T13:47:28.138Z,12.33
2018-11-28T13:49:59.436Z,11.57
2018-11-28T13:52:30.077Z,12.10
2018-11-28T13:57:31.446Z,12.03
2018-11-28T14:00:02.086Z,12.60
2018-11-28T14:02:32.677Z,12.17
2018-11-28T14:05:03.331Z,12.53
2018-11-28T14:07:34.162Z,12.93
2018-11-28T14:10:08.485Z,13.60
2018-11-28T14:12:39.255Z,13.10
2018-11-28T14:15:19.546Z,13.63
2018-11-28T14:18:00.520Z,12.75
2018-11-28T14:20:31.374Z,13.23
2018-11-28T14:23:01.985Z,13.03
2018-11-28T14:25:32.688Z,12.77
2018-11-28T14:28:03.466Z,12.43
2018-11-28T14:30:34.121Z,13.73
2018-11-28T14:33:04.831Z,13.73
2018-11-28T14:35:35.800Z,13.10
2018-11-28T14:38:06.923Z,14.27
2018-11-28T14:40:37.542Z,13.93
2018-11-28T14:43:08.950Z,14.70
2018-11-28T14:45:39.991Z,14.15
2018-11-28T14:48:10.710Z,14.33
2018-11-28T14:50:41.482Z,12.80
2018-11-28T14:53:12.146Z,14.40
2018-11-28T14:55:43.414Z,13.85
2018-11-28T14:58:14.398Z,14.30
2018-11-28T15:00:45.362Z,13.83
2018-11-28T15:03:19.982Z,13.88
2018-11-28T15:06:56.694Z,13.80
2018-11-28T15:09:34.694Z,13.40
2018-11-28T15:12:11.760Z,12.97
2018-11-28T15:14:41.374Z,13.53
2018-11-28T15:17:12.080Z,13.97
2018-11-28T15:19:42.992Z,14.15
2018-11-28T15:22:13.810Z,13.80
2018-11-28T15:24:45.174Z,13.70
2018-11-28T15:27:15.946Z,13.57
2018-11-28T15:29:47.058Z,13.60
2018-11-28T15:32:18.337Z,12.63
2018-11-28T15:34:48.957Z,14.87
2018-11-28T15:37:19.605Z,14.10
2018-11-28T15:39:55.686Z,13.70
2018-11-28T15:42:20.997Z,14.43
2018-11-28T15:44:51.678Z,13.30
2018-11-28T15:47:22.426Z,13.97
2018-11-28T15:49:53.051Z,14.80
2018-11-28T15:52:24.175Z,14.63
2018-11-28T15:54:54.832Z,14.30
2018-11-28T15:57:25.714Z,14.43
2018-11-28T15:59:56.690Z,16.02
2018-11-28T16:02:27.650Z,16.40
2018-11-28T16:04:58.383Z,15.33
2018-11-28T16:07:28.963Z,16.07
2018-11-28T16:10:04.992Z,14.70
2018-11-28T16:12:36.406Z,15.38
2018-11-28T16:15:09.945Z,15.60
2018-11-28T16:17:40.283Z,14.53
2018-11-28T16:20:11.573Z,14.80
2018-11-28T16:22:42.574Z,15.50
2018-11-28T16:25:14.026Z,15.33
2018-11-28T16:27:45.037Z,15.03
2018-11-28T16:30:16.887Z,14.98
2018-11-28T16:32:48.247Z,15.90
2018-11-28T16:35:19.567Z,16.37
2018-11-28T16:37:50.715Z,15.77
2018-11-28T16:40:21.374Z,15.33
2018-11-28T16:42:52.618Z,15.40
2018-11-28T16:45:23.333Z,15.13
2018-11-28T16:47:54.682Z,15.43
2018-11-28T16:50:25.724Z,15.68
2018-11-28T16:52:57.017Z,16.02
2018-11-28T16:55:27.918Z,14.83
2018-11-28T16:57:58.875Z,15.90
2018-11-28T17:00:31.589Z,16.05
2018-11-28T17:03:02.482Z,15.93
2018-11-28T17:05:33.382Z,15.15
2018-11-28T17:08:05.666Z,14.40
2018-11-28T17:10:37.250Z,15.30
2018-11-28T17:13:08.887Z,14.73
2018-11-28T17:15:39.814Z,13.80
2018-11-28T17:18:10.534Z,15.05
2018-11-28T17:20:43.842Z,14.63
2018-11-28T17:23:14.711Z,14.47
2018-11-28T17:25:45.684Z,15.23
2018-11-28T17:28:16.614Z,14.63
2018-11-28T17:30:47.581Z,15.70
2018-11-28T17:33:18.538Z,13.98
2018-11-28T17:35:49.466Z,15.95
2018-11-28T17:38:20.395Z,14.25
2018-11-28T17:40:51.566Z,14.13
2018-11-28T17:43:21.945Z,14.53
2018-11-28T17:45:52.921Z,14.60
2018-11-28T17:48:23.942Z,16.37
2018-11-28T17:50:54.846Z,15.15
2018-11-28T17:53:25.806Z,16.80
2018-11-28T17:55:58.662Z,14.50
2018-11-28T17:58:29.632Z,15.28
2018-11-28T18:01:00.578Z,15.20
2018-11-28T18:03:31.458Z,14.25
2018-11-28T18:06:02.546Z,15.50
2018-11-28T18:08:33.518Z,14.23
2018-11-28T18:11:14.522Z,14.90
2018-11-28T18:13:45.767Z,15.03
2018-11-28T18:16:16.732Z,15.28
2018-11-28T18:18:47.414Z,14.75
2018-11-28T18:21:18.306Z,13.78
2018-11-28T18:23:49.282Z,14.47
2018-11-28T18:26:20.166Z,17.02
2018-11-28T18:28:51.131Z,15.20
2018-11-28T18:31:22.044Z,16.45
2018-11-28T18:33:52.948Z,15.80
2018-11-28T18:36:24.198Z,14.98
2018-11-28T18:38:55.191Z,15.95
2018-11-28T18:41:26.133Z,15.53
2018-11-28T18:43:56.966Z,14.20
2018-11-28T18:46:27.997Z,15.10
2018-11-28T18:48:58.927Z,14.70
2018-11-28T18:51:29.993Z,15.18
2018-11-28T18:54:00.990Z,15.20
2018-11-28T18:56:32.251Z,14.63
2018-11-28T18:59:03.137Z,14.45
2018-11-28T19:01:34.087Z,15.00
2018-11-28T19:04:05.122Z,14.70
2018-11-28T19:06:37.223Z,14.47
2018-11-28T19:09:14.316Z,15.18
2018-11-28T19:11:45.390Z,18.40
2018-11-28T19:14:17.448Z,18.62
2018-11-28T19:16:48.480Z,17.98
2018-11-28T19:19:19.530Z,17.57
2018-11-28T19:21:50.673Z,16.15
2018-11-28T19:24:21.646Z,15.03
2018-11-28T19:26:52.927Z,15.53
2018-11-28T19:29:23.874Z,15.00
2018-11-28T19:31:54.810Z,15.72
2018-11-28T19:34:25.939Z,15.75
2018-11-28T19:36:57.120Z,14.85
2018-11-28T19:39:28.189Z,14.98
2018-11-28T19:41:59.105Z,15.23
2018-11-28T19:44:29.728Z,15.13
2018-11-28T19:47:01.457Z,15.28
2018-11-28T19:49:32.301Z,15.03
2018-11-28T19:52:04.306Z,15.18
2018-11-28T19:54:36.159Z,14.30
2018-11-28T19:57:07.419Z,14.47
2018-11-28T19:59:38.283Z,16.52
2018-11-28T20:02:09.851Z,15.90
2018-11-28T20:04:40.782Z,15.50
2018-11-28T20:07:12.044Z,15.65
2018-11-28T20:09:43.088Z,15.55
2018-11-28T20:12:14.026Z,15.40
2018-11-28T20:14:44.962Z,16.50
2018-11-28T20:17:16.033Z,15.43
2018-11-28T20:19:47.058Z,16.70
2018-11-28T20:22:17.958Z,15.35
2018-11-28T20:24:48.983Z,16.50
2018-11-28T20:27:19.815Z,15.70
2018-11-28T20:29:51.505Z,15.68
2018-11-28T20:32:22.556Z,15.43
2018-11-28T20:34:53.514Z,15.40
2018-11-28T20:37:24.534Z,15.08
2018-11-28T20:39:55.558Z,15.20
2018-11-28T20:42:26.502Z,16.02
2018-11-28T20:44:57.479Z,16.45
2018-11-28T20:47:28.457Z,15.98
2018-11-28T20:49:59.338Z,15.72
2018-11-28T20:52:30.312Z,16.40
2018-11-28T20:55:02.369Z,17.52
2018-11-28T20:57:33.420Z,16.42
2018-11-28T21:00:07.574Z,17.02
2018-11-28T21:02:38.751Z,15.85
2018-11-28T21:05:10.101Z,17.50
2018-11-28T21:07:41.038Z,17.82
2018-11-28T21:10:18.850Z,17.85
2018-11-28T21:12:50.286Z,18.15
2018-11-28T21:15:21.318Z,17.10
2018-11-28T21:17:52.247Z,17.10
2018-11-28T21:20:23.919Z,16.75
2018-11-28T21:23:00.767Z,17.98
2018-11-28T21:25:31.646Z,16.17
2018-11-28T21:28:02.642Z,16.20
2018-11-28T21:30:33.603Z,15.53
2018-11-28T21:33:04.513Z,17.35
2018-11-28T21:35:37.734Z,16.30
2018-11-28T21:38:09.923Z,15.60
2018-11-28T21:40:41.035Z,18.30
2018-11-28T21:43:12.015Z,16.07
2018-11-28T21:45:43.148Z,15.75
2018-11-28T21:48:14.057Z,15.88
2018-11-28T21:50:45.166Z,18.60
2018-11-28T21:53:16.134Z,16.42
2018-11-28T21:55:46.917Z,16.70
2018-11-28T21:58:17.867Z,15.85
2018-11-28T22:00:48.944Z,15.10
2018-11-28T22:03:19.790Z,16.15
2018-11-28T22:05:50.748Z,15.83
2018-11-28T22:08:21.618Z,15.60
2018-11-28T22:10:52.510Z,16.57
2018-11-28T22:13:23.422Z,16.10
2018-11-28T22:15:54.313Z,16.27
2018-11-28T22:18:25.182Z,16.07
2018-11-28T22:20:56.101Z,16.17
2018-11-28T22:23:27.626Z,16.10
2018-11-28T22:25:58.704Z,16.37
2018-11-28T22:28:29.585Z,16.10
2018-11-28T22:31:00.487Z,15.48
2018-11-28T22:33:31.330Z,16.73
2018-11-28T22:36:03.022Z,15.23
2018-11-28T22:38:33.890Z,17.98
2018-11-28T22:41:04.754Z,16.70
2018-11-28T22:43:35.646Z,15.75
2018-11-28T22:46:07.095Z,16.60
2018-11-28T22:48:38.075Z,16.62
2018-11-28T22:51:08.927Z,15.40
2018-11-28T22:53:39.646Z,15.48
2018-11-28T22:56:10.560Z,15.88
2018-11-28T22:58:41.453Z,15.85
2018-11-28T23:01:12.361Z,14.95
2018-11-28T23:03:43.326Z,15.95
2018-11-28T23:06:14.229Z,15.32
2018-11-28T23:08:45.159Z,15.63
2018-11-28T23:11:16.090Z,15.80
2018-11-28T23:13:47.450Z,15.93
2018-11-28T23:16:18.456Z,16.67
2018-11-28T23:18:49.437Z,15.20
2018-11-28T23:21:20.369Z,13.83
2018-11-28T23:23:51.370Z,14.05
2018-11-28T23:26:22.343Z,14.25
2018-11-28T23:28:53.293Z,15.90
2018-11-28T23:31:24.345Z,14.90
2018-11-28T23:33:56.388Z,14.95
2018-11-28T23:36:27.289Z,15.45
2018-11-28T23:38:58.511Z,15.40
2018-11-28T23:41:29.643Z,15.65
2018-11-28T23:44:00.542Z,15.95
2018-11-28T23:46:32.415Z,15.75
2018-11-28T23:49:03.414Z,15.80
2018-11-28T23:51:35.819Z,14.78
2018-11-28T23:54:07.183Z,15.95
2018-11-28T23:56:38.045Z,14.78
2018-11-28T23:59:08.930Z,15.15
